createdAt,value
2018-06-22T00:01:03.273Z,11.84
2018-06-22T00:03:32.464Z,11.80
2018-06-22T00:06:01.094Z,11.76
2018-06-22T00:08:36.618Z,11.69
2018-06-22T00:11:05.288Z,11.65
2018-06-22T00:13:34.311Z,11.59
2018-06-22T00:16:04.352Z,11.62
2018-06-22T00:18:33.211Z,11.58
2018-06-22T00:21:02.143Z,11.53
2018-06-22T00:23:30.933Z,11.42
2018-06-22T00:26:00.035Z,11.36
2018-06-22T00:28:28.947Z,11.36
2018-06-22T00:30:58.033Z,11.39
2018-06-22T00:33:26.785Z,11.32
2018-06-22T00:35:56.150Z,11.20
2018-06-22T00:38:26.401Z,11.13
2018-06-22T00:40:55.320Z,11.19
2018-06-22T00:43:24.707Z,11.12
2018-06-22T00:45:53.646Z,11.02
2018-06-22T00:48:22.643Z,10.89
2018-06-22T00:50:51.777Z,10.78
2018-06-22T00:53:31.875Z,10.66
2018-06-22T00:56:00.792Z,10.62
2018-06-22T00:58:29.995Z,10.61
2018-06-22T01:00:59.031Z,10.54
2018-06-22T01:03:28.019Z,10.52
2018-06-22T01:05:56.929Z,10.47
2018-06-22T01:08:25.866Z,10.57
2018-06-22T01:10:54.750Z,10.55
2018-06-22T01:13:24.435Z,10.59
2018-06-22T01:15:53.044Z,10.65
2018-06-22T01:18:21.718Z,10.62
2018-06-22T01:20:51.235Z,10.66
2018-06-22T01:23:20.874Z,10.60
2018-06-22T01:25:49.993Z,10.63
2018-06-22T01:28:18.819Z,10.60
2018-06-22T01:30:47.634Z,10.51
2018-06-22T01:33:16.559Z,10.50
2018-06-22T01:35:45.720Z,10.46
2018-06-22T01:38:14.891Z,10.42
2018-06-22T01:40:44.816Z,10.33
2018-06-22T01:43:13.766Z,10.36
2018-06-22T01:45:43.342Z,10.22
2018-06-22T01:48:13.327Z,10.13
2018-06-22T01:50:42.252Z,10.15
2018-06-22T01:53:10.972Z,10.08
2018-06-22T01:55:39.782Z,10.07
2018-06-22T01:58:08.691Z,9.97
2018-06-22T02:00:37.605Z,9.95
2018-06-22T02:03:06.439Z,9.95
2018-06-22T02:05:35.322Z,9.89
2018-06-22T02:08:04.108Z,9.83
2018-06-22T02:10:32.890Z,9.78
2018-06-22T02:13:01.552Z,9.73
2018-06-22T02:15:30.349Z,9.66
2018-06-22T02:17:59.207Z,9.52
2018-06-22T02:20:27.951Z,9.42
2018-06-22T02:22:56.614Z,9.40
2018-06-22T02:25:25.266Z,9.36
2018-06-22T02:27:53.982Z,9.46
2018-06-22T02:30:22.685Z,9.34
2018-06-22T02:32:51.370Z,9.37
2018-06-22T02:35:20.036Z,9.37
2018-06-22T02:37:48.770Z,9.36
2018-06-22T02:40:17.511Z,9.30
2018-06-22T02:42:46.226Z,9.36
2018-06-22T02:45:14.989Z,9.38
2018-06-22T02:47:43.736Z,9.33
2018-06-22T02:50:12.401Z,9.38
2018-06-22T02:52:41.054Z,9.36
2018-06-22T02:55:09.985Z,9.35
2018-06-22T02:57:38.767Z,9.35
2018-06-22T03:00:07.553Z,9.28
2018-06-22T03:02:36.252Z,9.30
2018-06-22T03:05:05.053Z,9.29
2018-06-22T03:07:33.965Z,9.24
2018-06-22T03:10:04.686Z,9.21
2018-06-22T03:12:33.822Z,9.22
2018-06-22T03:15:03.202Z,9.20
2018-06-22T03:17:31.994Z,9.20
2018-06-22T03:20:01.118Z,10.11
2018-06-22T03:22:30.073Z,10.44
2018-06-22T03:24:59.131Z,10.90
2018-06-22T03:27:27.864Z,10.98
2018-06-22T03:29:56.752Z,10.96
2018-06-22T03:32:25.452Z,11.06
2018-06-22T03:34:54.134Z,11.02
2018-06-22T03:37:22.856Z,11.09
2018-06-22T03:39:51.614Z,11.27
2018-06-22T03:42:20.266Z,11.21
2018-06-22T03:44:49.173Z,11.38
2018-06-22T03:47:17.824Z,11.35
2018-06-22T03:49:46.570Z,11.43
2018-06-22T03:52:15.428Z,11.42
2018-06-22T03:54:44.360Z,11.48
2018-06-22T03:57:13.161Z,11.66
2018-06-22T03:59:41.988Z,11.43
2018-06-22T04:02:10.745Z,11.65
2018-06-22T04:04:39.448Z,11.85
2018-06-22T04:07:08.322Z,11.89
2018-06-22T04:09:37.304Z,11.76
2018-06-22T04:12:06.128Z,11.67
2018-06-22T04:14:34.965Z,11.65
2018-06-22T04:17:03.664Z,11.81
2018-06-22T04:19:32.422Z,11.97
2018-06-22T04:22:01.150Z,12.03
2018-06-22T04:24:30.064Z,11.95
2018-06-22T04:26:58.708Z,11.52
2018-06-22T04:29:27.600Z,11.05
2018-06-22T04:31:57.068Z,10.90
2018-06-22T04:34:25.865Z,10.76
2018-06-22T04:36:54.503Z,10.55
2018-06-22T04:39:23.202Z,10.56
2018-06-22T04:41:51.992Z,10.59
2018-06-22T04:44:29.495Z,10.73
2018-06-22T04:46:58.587Z,10.73
2018-06-22T04:49:27.470Z,10.90
2018-06-22T04:51:56.291Z,10.83
2018-06-22T04:54:25.459Z,10.85
2018-06-22T04:56:54.708Z,10.79
2018-06-22T04:59:23.848Z,10.72
2018-06-22T05:01:55.752Z,10.72
2018-06-22T05:04:24.588Z,10.68
2018-06-22T05:06:53.533Z,10.89
2018-06-22T05:09:22.505Z,11.23
2018-06-22T05:11:51.320Z,11.49
2018-06-22T05:14:20.660Z,11.97
2018-06-22T05:16:50.123Z,12.41
2018-06-22T05:19:19.347Z,12.08
2018-06-22T05:21:48.357Z,11.85
2018-06-22T05:24:18.499Z,11.50
2018-06-22T05:26:47.321Z,11.56
2018-06-22T05:29:16.860Z,12.16
2018-06-22T05:31:45.951Z,11.93
2018-06-22T05:34:14.935Z,11.96
2018-06-22T05:36:44.405Z,11.70
2018-06-22T05:39:13.388Z,11.78
2018-06-22T05:41:42.379Z,11.78
2018-06-22T05:44:11.615Z,11.69
2018-06-22T05:46:40.543Z,11.76
2018-06-22T05:49:09.600Z,11.81
2018-06-22T05:51:38.847Z,11.78
2018-06-22T05:54:07.813Z,11.78
2018-06-22T05:56:36.855Z,11.78
2018-06-22T05:59:06.238Z,11.94
2018-06-22T06:01:35.233Z,11.80
2018-06-22T06:04:04.178Z,11.77
2018-06-22T06:06:33.020Z,11.91
2018-06-22T06:09:02.109Z,12.18
2018-06-22T06:11:31.755Z,12.37
2018-06-22T06:14:01.483Z,12.63
2018-06-22T06:16:30.766Z,12.36
2018-06-22T06:18:59.964Z,12.43
2018-06-22T06:21:29.982Z,12.39
2018-06-22T06:23:59.385Z,12.53
2018-06-22T06:26:28.171Z,12.79
2018-06-22T06:29:01.893Z,12.90
2018-06-22T06:31:30.864Z,12.57
2018-06-22T06:33:59.675Z,12.87
2018-06-22T06:36:29.971Z,13.10
2018-06-22T06:39:03.749Z,12.62
2018-06-22T06:41:32.690Z,12.71
2018-06-22T06:44:01.480Z,13.25
2018-06-22T06:46:31.092Z,13.48
2018-06-22T06:48:59.901Z,13.47
2018-06-22T06:51:29.020Z,13.62
2018-06-22T06:53:58.353Z,12.87
2018-06-22T06:56:27.098Z,13.06
2018-06-22T06:58:55.668Z,13.26
2018-06-22T07:01:24.411Z,13.49
2018-06-22T07:03:53.136Z,13.82
2018-06-22T07:06:22.068Z,14.11
2018-06-22T07:08:50.913Z,14.06
2018-06-22T07:11:19.625Z,14.00
2018-06-22T07:13:48.594Z,13.79
2018-06-22T07:16:17.659Z,13.79
2018-06-22T07:18:46.680Z,13.67
2018-06-22T07:21:15.861Z,13.86
2018-06-22T07:23:45.783Z,13.82
2018-06-22T07:26:14.627Z,14.49
2018-06-22T07:28:43.669Z,14.85
2018-06-22T07:31:13.021Z,14.37
2018-06-22T07:33:41.956Z,14.16
2018-06-22T07:36:11.415Z,13.80
2018-06-22T07:38:40.439Z,13.54
2018-06-22T07:41:09.610Z,14.24
2018-06-22T07:43:38.583Z,14.95
2018-06-22T07:46:07.451Z,14.85
2018-06-22T07:48:36.733Z,15.12
2018-06-22T07:51:05.600Z,14.93
2018-06-22T07:53:34.758Z,14.93
2018-06-22T07:56:03.697Z,14.88
2018-06-22T07:58:32.595Z,15.36
2018-06-22T08:01:01.595Z,16.01
2018-06-22T08:03:31.240Z,15.88
2018-06-22T08:06:00.442Z,16.34
2018-06-22T08:08:29.365Z,15.89
2018-06-22T08:10:58.189Z,15.29
2018-06-22T08:13:27.110Z,15.37
2018-06-22T08:15:56.941Z,15.31
2018-06-22T08:18:26.206Z,15.38
2018-06-22T08:20:55.943Z,15.18
2018-06-22T08:23:24.718Z,15.17
2018-06-22T08:25:53.601Z,15.35
2018-06-22T08:28:22.390Z,15.26
2018-06-22T08:30:52.562Z,15.77
2018-06-22T08:33:22.016Z,16.24
2018-06-22T08:35:51.410Z,16.13
2018-06-22T08:38:20.160Z,15.70
2018-06-22T08:40:49.355Z,16.43
2018-06-22T08:43:18.448Z,16.26
2018-06-22T08:45:48.085Z,16.61
2018-06-22T08:48:17.007Z,17.27
2018-06-22T08:50:46.083Z,16.74
2018-06-22T08:53:15.854Z,16.62
2018-06-22T08:55:45.625Z,16.51
2018-06-22T08:58:15.097Z,16.70
2018-06-22T09:00:44.007Z,16.50
2018-06-22T09:03:13.098Z,16.36
2018-06-22T09:05:42.525Z,16.21
2018-06-22T09:08:11.436Z,15.75
2018-06-22T09:10:40.625Z,16.44
2018-06-22T09:13:10.614Z,16.86
2018-06-22T09:15:39.667Z,17.53
2018-06-22T09:18:09.008Z,17.78
2018-06-22T09:20:37.899Z,17.61
2018-06-22T09:23:06.948Z,18.31
2018-06-22T09:25:36.198Z,17.60
2018-06-22T09:28:05.140Z,16.65
2018-06-22T09:30:34.242Z,16.65
2018-06-22T09:33:03.270Z,16.47
2018-06-22T09:35:32.655Z,17.38
2018-06-22T09:38:01.794Z,17.52
2018-06-22T09:40:32.006Z,17.59
2018-06-22T09:43:00.952Z,17.82
2018-06-22T09:45:31.604Z,17.11
2018-06-22T09:48:00.231Z,16.20
2018-06-22T09:50:29.128Z,16.26
2018-06-22T09:52:58.218Z,16.44
2018-06-22T09:55:27.595Z,16.28
2018-06-22T09:57:56.721Z,16.55
2018-06-22T10:00:25.650Z,16.96
2018-06-22T10:03:04.059Z,17.08
2018-06-22T10:05:39.302Z,16.73
2018-06-22T10:08:08.450Z,17.01
2018-06-22T10:10:37.700Z,17.28
2018-06-22T10:13:07.129Z,17.16
2018-06-22T10:15:36.183Z,17.25
2018-06-22T10:18:05.045Z,18.30
2018-06-22T10:20:34.326Z,18.72
2018-06-22T10:23:03.334Z,18.47
2018-06-22T10:25:33.785Z,18.08
2018-06-22T10:28:03.671Z,17.99
2018-06-22T10:30:33.230Z,18.89
2018-06-22T10:33:02.428Z,17.70
2018-06-22T10:35:31.977Z,17.45
2018-06-22T10:38:04.200Z,18.16
2018-06-22T10:40:34.039Z,18.24
2018-06-22T10:43:03.045Z,17.90
2018-06-22T10:45:32.686Z,18.10
2018-06-22T10:48:03.763Z,18.47
2018-06-22T10:50:32.852Z,18.56
2018-06-22T10:53:02.068Z,18.40
2018-06-22T10:55:32.271Z,17.81
2018-06-22T10:58:02.146Z,17.98
2018-06-22T11:00:31.691Z,17.50
2018-06-22T11:03:00.942Z,17.65
2018-06-22T11:05:30.205Z,17.42
2018-06-22T11:08:00.122Z,17.53
2018-06-22T11:10:29.771Z,18.23
2018-06-22T11:12:58.637Z,18.32
2018-06-22T11:15:27.739Z,18.25
2018-06-22T11:17:58.850Z,18.39
2018-06-22T11:20:27.881Z,17.70
2018-06-22T11:22:57.091Z,18.09
2018-06-22T11:25:26.563Z,18.27
2018-06-22T11:27:55.654Z,18.76
2018-06-22T11:30:24.948Z,18.04
2018-06-22T11:32:53.895Z,17.92
2018-06-22T11:35:24.270Z,17.87
2018-06-22T11:37:53.111Z,17.29
2018-06-22T11:40:22.568Z,17.55
2018-06-22T11:42:52.149Z,17.39
2018-06-22T11:45:21.302Z,17.41
2018-06-22T11:47:50.230Z,17.61
2018-06-22T11:50:19.736Z,17.58
2018-06-22T11:52:48.965Z,17.90
2018-06-22T11:55:18.619Z,17.99
2018-06-22T11:57:59.001Z,17.44
2018-06-22T12:00:28.723Z,17.28
2018-06-22T12:02:58.108Z,17.22
2018-06-22T12:05:27.097Z,17.06
2018-06-22T12:07:56.387Z,17.07
2018-06-22T12:10:25.975Z,17.11
2018-06-22T12:12:55.070Z,17.24
2018-06-22T12:15:31.684Z,17.06
2018-06-22T12:18:00.815Z,16.94
2018-06-22T12:20:29.761Z,17.38
2018-06-22T12:22:58.910Z,17.57
2018-06-22T12:25:28.937Z,17.57
2018-06-22T12:27:58.664Z,17.97
2018-06-22T12:30:27.654Z,18.09
2018-06-22T12:32:56.590Z,18.21
2018-06-22T12:35:25.556Z,18.58
2018-06-22T12:37:54.505Z,18.84
2018-06-22T12:40:23.655Z,18.16
2018-06-22T12:42:52.580Z,18.69
2018-06-22T12:45:21.651Z,17.95
2018-06-22T12:47:53.579Z,17.73
2018-06-22T12:50:23.774Z,17.85
2018-06-22T12:52:53.025Z,18.46
2018-06-22T12:55:22.367Z,18.62
2018-06-22T12:57:51.694Z,19.15
2018-06-22T13:00:22.715Z,19.20
2018-06-22T13:03:02.272Z,19.81
2018-06-22T13:05:31.976Z,20.46
2018-06-22T13:08:01.525Z,19.37
2018-06-22T13:10:30.717Z,18.74
2018-06-22T13:13:00.121Z,17.80
2018-06-22T13:15:29.106Z,17.38
2018-06-22T13:17:58.073Z,17.32
2018-06-22T13:20:27.651Z,17.98
2018-06-22T13:22:57.223Z,18.29
2018-06-22T13:25:26.648Z,18.40
2018-06-22T13:27:56.267Z,18.77
2018-06-22T13:30:25.727Z,19.18
2018-06-22T13:32:55.423Z,18.87
2018-06-22T13:35:25.356Z,20.50
2018-06-22T13:37:55.072Z,21.32
2018-06-22T13:40:24.377Z,20.99
2018-06-22T13:42:53.580Z,21.81
2018-06-22T13:45:23.085Z,20.74
2018-06-22T13:47:52.451Z,20.17
2018-06-22T13:50:27.658Z,20.79
2018-06-22T13:52:56.907Z,21.79
2018-06-22T13:55:26.022Z,23.69
2018-06-22T13:57:57.985Z,24.09
2018-06-22T14:00:27.341Z,23.18
2018-06-22T14:02:56.967Z,21.94
2018-06-22T14:05:31.484Z,20.62
2018-06-22T14:08:00.674Z,20.67
2018-06-22T14:10:29.923Z,20.43
2018-06-22T14:12:59.746Z,20.31
2018-06-22T14:15:29.225Z,20.41
2018-06-22T14:18:00.530Z,21.59
2018-06-22T14:20:30.113Z,22.08
2018-06-22T14:23:02.307Z,21.95
2018-06-22T14:25:31.561Z,21.56
2018-06-22T14:28:00.650Z,20.75
2018-06-22T14:30:31.690Z,20.10
2018-06-22T14:33:01.077Z,20.03
2018-06-22T14:35:30.024Z,20.02
2018-06-22T14:37:59.030Z,19.94
2018-06-22T14:40:28.304Z,20.36
2018-06-22T14:42:57.563Z,20.90
2018-06-22T14:45:26.969Z,21.06
2018-06-22T14:47:56.153Z,23.54
2018-06-22T14:50:25.016Z,23.06
2018-06-22T14:52:56.022Z,23.37
2018-06-22T14:55:30.618Z,26.61
2018-06-22T14:58:04.712Z,26.80
2018-06-22T15:00:40.245Z,27.05
2018-06-22T15:03:14.680Z,23.90
2018-06-22T15:05:50.299Z,25.36
2018-06-22T15:08:21.856Z,26.01
2018-06-22T15:10:51.284Z,30.79
2018-06-22T15:13:20.453Z,30.19
2018-06-22T15:15:49.734Z,30.52
2018-06-22T15:18:19.919Z,33.19
2018-06-22T15:20:49.148Z,29.93
2018-06-22T15:23:18.401Z,28.07
2018-06-22T15:25:48.631Z,26.16
2018-06-22T15:28:17.747Z,23.60
2018-06-22T15:30:47.259Z,21.87
2018-06-22T15:33:22.365Z,21.40
2018-06-22T15:35:56.490Z,24.51
2018-06-22T15:38:30.524Z,30.80
2018-06-22T15:41:04.893Z,28.73
2018-06-22T15:43:39.199Z,23.11
2018-06-22T15:46:13.296Z,21.45
2018-06-22T15:48:48.349Z,20.34
2018-06-22T15:51:23.244Z,20.16
2018-06-22T15:53:57.612Z,19.32
2018-06-22T15:56:27.053Z,19.96
2018-06-22T15:58:56.931Z,23.44
2018-06-22T16:01:26.712Z,26.86
2018-06-22T16:03:57.180Z,31.90
2018-06-22T16:06:27.110Z,29.64
2018-06-22T16:08:56.733Z,27.44
2018-06-22T16:11:29.232Z,26.24
2018-06-22T16:14:03.372Z,22.83
2018-06-22T16:16:37.595Z,22.55
2018-06-22T16:19:11.710Z,21.62
2018-06-22T16:21:45.941Z,20.33
2018-06-22T16:24:20.047Z,20.11
2018-06-22T16:26:53.966Z,18.59
2018-06-22T16:29:23.845Z,18.99
2018-06-22T16:31:53.599Z,18.88
2018-06-22T16:34:22.668Z,18.88
2018-06-22T16:36:53.404Z,19.26
2018-06-22T16:39:22.912Z,19.26
2018-06-22T16:41:56.031Z,19.45
2018-06-22T16:44:25.130Z,24.91
2018-06-22T16:46:54.647Z,26.64
2018-06-22T16:49:24.230Z,24.39
2018-06-22T16:51:53.761Z,22.79
2018-06-22T16:54:24.311Z,24.98
2018-06-22T16:56:54.894Z,24.08
2018-06-22T16:59:24.934Z,27.10
2018-06-22T17:01:54.427Z,27.85
2018-06-22T17:04:23.590Z,23.85
2018-06-22T17:06:57.928Z,21.76
2018-06-22T17:09:32.217Z,22.82
2018-06-22T17:12:06.181Z,27.52
2018-06-22T17:14:40.650Z,29.50
2018-06-22T17:17:14.775Z,27.79
2018-06-22T17:19:44.297Z,25.32
2018-06-22T17:22:15.771Z,24.04
2018-06-22T17:24:45.184Z,22.91
2018-06-22T17:27:14.737Z,21.33
2018-06-22T17:29:43.935Z,21.43
2018-06-22T17:32:17.754Z,20.73
2018-06-22T17:34:47.217Z,19.71
2018-06-22T17:37:18.315Z,19.89
2018-06-22T17:39:47.815Z,19.87
2018-06-22T17:42:16.928Z,21.20
2018-06-22T17:44:46.233Z,24.30
2018-06-22T17:47:15.571Z,23.97
2018-06-22T17:49:45.047Z,29.01
2018-06-22T17:52:14.687Z,29.65
2018-06-22T17:54:44.231Z,30.89
2018-06-22T17:57:14.632Z,30.50
2018-06-22T17:59:49.639Z,30.09
2018-06-22T18:02:25.381Z,28.70
2018-06-22T18:04:59.829Z,30.07
2018-06-22T18:07:36.686Z,28.54
2018-06-22T18:10:11.061Z,24.16
2018-06-22T18:12:45.218Z,21.99
2018-06-22T18:15:15.375Z,20.51
2018-06-22T18:17:44.656Z,19.64
2018-06-22T18:20:14.351Z,19.21
2018-06-22T18:22:43.683Z,18.65
2018-06-22T18:25:13.705Z,18.03
2018-06-22T18:27:42.637Z,17.65
2018-06-22T18:30:13.141Z,17.54
2018-06-22T18:32:42.293Z,17.35
2018-06-22T18:35:13.203Z,17.52
2018-06-22T18:37:42.951Z,17.26
2018-06-22T18:40:13.281Z,17.27
2018-06-22T18:42:43.116Z,17.07
2018-06-22T18:45:12.779Z,16.95
2018-06-22T18:47:42.653Z,16.83
2018-06-22T18:50:12.349Z,16.67
2018-06-22T18:52:46.787Z,16.62
2018-06-22T18:55:21.236Z,16.48
2018-06-22T18:57:55.345Z,16.33
2018-06-22T19:00:29.838Z,16.42
2018-06-22T19:03:04.031Z,16.26
2018-06-22T19:05:35.552Z,15.98
2018-06-22T19:08:04.799Z,15.78
2018-06-22T19:10:33.879Z,15.80
2018-06-22T19:13:02.880Z,15.57
2018-06-22T19:15:32.171Z,15.43
2018-06-22T19:18:01.520Z,15.26
2018-06-22T19:20:30.926Z,15.10
2018-06-22T19:23:00.190Z,15.01
2018-06-22T19:25:29.359Z,14.77
2018-06-22T19:27:58.864Z,14.47
2018-06-22T19:30:28.641Z,14.35
2018-06-22T19:32:58.471Z,14.17
2018-06-22T19:35:27.848Z,14.04
2018-06-22T19:37:57.016Z,13.95
2018-06-22T19:40:26.100Z,13.70
2018-06-22T19:42:55.679Z,13.72
2018-06-22T19:45:30.204Z,13.53
2018-06-22T19:48:04.406Z,13.46
2018-06-22T19:50:38.769Z,13.20
2018-06-22T19:53:13.439Z,13.32
2018-06-22T19:55:43.353Z,13.18
2018-06-22T19:58:12.813Z,13.01
2018-06-22T20:00:42.560Z,12.81
2018-06-22T20:03:11.989Z,12.66
2018-06-22T20:05:41.114Z,12.53
2018-06-22T20:08:10.895Z,12.35
2018-06-22T20:10:40.996Z,12.23
2018-06-22T20:13:15.251Z,12.12
2018-06-22T20:15:45.446Z,12.04
2018-06-22T20:18:21.362Z,11.94
2018-06-22T20:20:51.154Z,11.84
2018-06-22T20:23:22.672Z,11.81
2018-06-22T20:25:52.721Z,11.74
2018-06-22T20:28:26.237Z,11.65
2018-06-22T20:33:51.713Z,11.49
2018-06-22T20:36:25.905Z,11.44
2018-06-22T20:39:03.506Z,11.42
2018-06-22T20:41:37.206Z,11.36
2018-06-22T20:44:11.344Z,11.36
2018-06-22T20:46:45.173Z,11.42
2018-06-22T20:49:19.117Z,11.36
2018-06-22T20:51:48.190Z,11.36
2018-06-22T20:54:16.599Z,11.29
2018-06-22T20:56:45.321Z,11.38
2018-06-22T20:59:14.414Z,11.34
2018-06-22T21:01:42.922Z,11.45
2018-06-22T21:04:11.540Z,11.41
2018-06-22T21:06:40.187Z,11.34
2018-06-22T21:09:09.492Z,11.36
2018-06-22T21:11:38.261Z,11.44
2018-06-22T21:14:06.933Z,11.40
2018-06-22T21:16:36.564Z,11.61
2018-06-22T21:19:04.945Z,11.74
2018-06-22T21:22:37.415Z,11.65
2018-06-22T21:25:05.870Z,11.69
2018-06-22T21:27:39.695Z,11.59
2018-06-22T21:30:13.407Z,11.53
2018-06-22T21:32:47.134Z,11.47
2018-06-22T21:35:28.194Z,11.40
2018-06-22T21:38:01.739Z,11.22
2018-06-22T21:40:30.649Z,11.16
2018-06-22T21:42:59.007Z,11.09
2018-06-22T21:45:27.649Z,10.95
2018-06-22T21:47:56.249Z,10.82
2018-06-22T21:50:24.639Z,10.79
2018-06-22T21:52:53.006Z,10.75
2018-06-22T21:55:21.365Z,10.76
2018-06-22T21:57:49.756Z,10.79
2018-06-22T22:00:26.307Z,10.96
2018-06-22T22:02:55.670Z,10.89
2018-06-22T22:05:24.037Z,11.35
2018-06-22T22:07:52.399Z,11.35
2018-06-22T22:10:26.085Z,11.36
2018-06-22T22:12:54.486Z,11.47
2018-06-22T22:15:22.812Z,11.53
2018-06-22T22:17:51.256Z,11.45
2018-06-22T22:20:19.605Z,11.38
2018-06-22T22:22:47.941Z,11.47
2018-06-22T22:25:16.298Z,11.31
2018-06-22T22:27:44.817Z,11.38
2018-06-22T22:30:13.375Z,11.27
2018-06-22T22:32:41.887Z,11.13
2018-06-22T22:35:10.243Z,10.99
2018-06-22T22:37:38.818Z,11.03
2018-06-22T22:40:07.996Z,11.00
2018-06-22T22:42:36.452Z,10.91
2018-06-22T22:45:05.452Z,10.72
2018-06-22T22:47:34.232Z,10.61
2018-06-22T22:50:02.638Z,10.49
2018-06-22T22:52:31.015Z,10.41
2018-06-22T22:54:59.771Z,10.34
2018-06-22T22:57:28.255Z,10.26
2018-06-22T23:00:12.480Z,10.24
2018-06-22T23:02:42.698Z,10.14
2018-06-22T23:05:11.880Z,10.10
2018-06-22T23:07:40.337Z,10.10
2018-06-22T23:10:08.999Z,10.11
2018-06-22T23:12:37.341Z,10.14
2018-06-22T23:15:06.533Z,10.08
2018-06-22T23:17:35.258Z,10.00
2018-06-22T23:20:03.551Z,9.98
2018-06-22T23:23:39.667Z,9.92
2018-06-22T23:26:08.315Z,9.83
2018-06-22T23:28:36.726Z,9.79
2018-06-22T23:31:06.166Z,9.74
2018-06-22T23:33:34.939Z,9.79
2018-06-22T23:36:04.269Z,9.83
2018-06-22T23:38:33.265Z,9.80
2018-06-22T23:41:01.560Z,9.85
2018-06-22T23:43:29.991Z,9.89
2018-06-22T23:45:58.295Z,9.95
2018-06-22T23:48:26.778Z,9.96
2018-06-22T23:50:55.125Z,10.07
2018-06-22T23:53:23.546Z,10.08
2018-06-22T23:55:51.914Z,10.06
2018-06-22T23:58:20.205Z,9.95
